Capt. John Reynolds — WDD6151 — position and weather

sailwx.info

Track history (hours):
 
Tides and Currents Weather Stations Pressure Air Temp Water Temp Dewpoint Dewpoint Depression Visibility Wind Speed Wind Dir Waves Ship Positions

Capt. John Reynolds

More information available from US FCC via Universal Licensing System and Coast Guard Vessel Documentation Center.

Last reported at 2014-Aug-31 11:04 UTC. Time now 2014-Sep-01 14:00 UTC.
Position N 29°60' W 090°50'.

Length 47 m; draft 3.3 m.

Type: Towing. MMSI: 367168950.

Date/timePositionNaut miles runAvg speedWind from/ knotsBaromVisibWave heightAir tempDewpointWater temp
2014-Aug-31 11:04N 29°60' W 090°50'0 0.0
2014-Aug-31 10:28N 29°60' W 090°50'0 0.0
2014-Aug-31 09:31N 29°60' W 090°50'0 0.4
2014-Aug-31 08:28N 29°59' W 090°49'0 0.0
2014-Aug-31 07:22N 29°59' W 090°49'0 0.0
2014-Aug-31 06:28N 29°59' W 090°49'0 0.0
2014-Aug-31 05:31N 29°59' W 090°49'3 0.3
2014-Aug-30 20:08N 30°01' W 090°47'3 4.9
2014-Aug-30 19:33N 30°01' W 090°44'5 4.8
2014-Aug-30 18:33N 30°03' W 090°39'4 4.4
2014-Aug-30 17:33N 30°03' W 090°34'4 4.0
2014-Aug-30 16:33N 30°03' W 090°29'0 0.1
2014-Aug-30 15:33N 30°03' W 090°29'0 0.0
2014-Aug-30 14:33N 30°03' W 090°29'0 0.0
2014-Aug-30 13:33N 30°03' W 090°29'0 0.0
2014-Aug-30 12:30N 30°03' W 090°29'0 0.0
2014-Aug-30 11:30N 30°03' W 090°29'0 0.0
2014-Aug-30 10:33N 30°03' W 090°29'0 0.0
2014-Aug-30 09:30N 30°03' W 090°29'0 0.0
2014-Aug-30 08:33N 30°03' W 090°29'0 0.0
2014-Aug-30 07:33N 30°03' W 090°29'0 0.0
2014-Aug-30 06:33N 30°03' W 090°29'0 0.0
2014-Aug-30 05:33N 30°03' W 090°29'1 1.3
2014-Aug-30 04:33N 30°02' W 090°28'5 4.8
2014-Aug-30 03:33N 29°59' W 090°24'3 2.4
2014-Aug-30 02:31N 29°57' W 090°23'3 0.9
2014-Aug-29 23:15N 29°56' W 090°19'0 0.0
2014-Aug-29 21:21N 29°56' W 090°19'0 0.0
2014-Aug-29 20:06N 29°56' W 090°19'13 0.3
2014-Aug-27 17:33N 30°03' W 090°32'2 1.6
2014-Aug-27 16:31N 30°03' W 090°34'0 0.0
2014-Aug-27 15:25N 30°03' W 090°34'0 0.0
2014-Aug-27 14:31N 30°03' W 090°34'0 0.1
2014-Aug-27 13:28N 30°03' W 090°34'4 4.3
2014-Aug-27 12:32N 30°03' W 090°38'7 7.0
2014-Aug-27 11:33N 30°01' W 090°46'2 1.3
2014-Aug-27 10:03N 30°00' W 090°48'0 0.0
2014-Aug-27 09:27N 30°00' W 090°48'0 0.0
2014-Aug-27 08:33N 30°00' W 090°48'0 0.0
2014-Aug-27 07:33N 30°00' W 090°48'0 0.0
2014-Aug-27 06:33N 30°00' W 090°48'0 0.0
2014-Aug-27 05:33N 30°00' W 090°48'0 0.0
2014-Aug-27 04:33N 30°00' W 090°48'0 0.0
2014-Aug-27 01:30N 29°60' W 090°48'2 2.0
2014-Aug-27 00:34N 30°01' W 090°50'10 0.7
2014-Aug-26 10:31N 30°02' W 090°38'4 4.5
2014-Aug-26 09:33N 30°03' W 090°33'1 0.8
2014-Aug-26 08:33N 30°03' W 090°32'0 0.0
2014-Aug-26 07:33N 30°03' W 090°32'0 0.1
2014-Aug-26 06:32N 30°03' W 090°32'0 0.0
2014-Aug-26 05:32N 30°03' W 090°32'0 0.0
2014-Aug-26 04:32N 30°03' W 090°32'0 0.0
2014-Aug-26 03:32N 30°03' W 090°32'0 0.3
2014-Aug-26 02:32N 30°03' W 090°32'0 0.3
2014-Aug-26 01:33N 30°03' W 090°32'0 0.3
2014-Aug-26 00:33N 30°03' W 090°32'5 4.5
2014-Aug-25 23:32N 30°02' W 090°38'11 1.0
2014-Aug-25 12:32N 29°60' W 090°50'0 0.0
2014-Aug-25 11:32N 29°60' W 090°50'0 0.0
2014-Aug-25 10:32N 29°60' W 090°50'0 0.0
2014-Aug-25 09:32N 29°60' W 090°50'1 1.3
2014-Aug-25 08:25N 30°01' W 090°50'0 0.1
2014-Aug-25 07:21N 30°01' W 090°50'3 3.2
2014-Aug-25 06:33N 30°00' W 090°47'6 6.1
2014-Aug-25 05:33N 30°03' W 090°40'6 5.6
2014-Aug-25 04:33N 30°03' W 090°34'1 0.5
2014-Aug-25 03:32N 30°03' W 090°33'7 3.7
2014-Aug-25 01:33N 29°60' W 090°26'5 4.0
2014-Aug-25 00:13N 29°56' W 090°21'24 0.5
2014-Aug-23 03:32N 30°00' W 090°48'1 0.3
2014-Aug-22 23:11N 30°01' W 090°46'8 4.4
2014-Aug-22 21:28N 30°02' W 090°38'4 4.3
2014-Aug-22 20:34N 30°03' W 090°33'2 2.0
2014-Aug-22 19:32N 30°03' W 090°31'0 0.2
2014-Aug-22 18:29N 30°03' W 090°31'0 0.0
2014-Aug-22 17:11N 30°03' W 090°31'0 0.0
2014-Aug-22 16:17N 30°03' W 090°31'0 0.2
2014-Aug-22 15:33N 30°03' W 090°31'0 0.0
2014-Aug-22 14:27N 30°03' W 090°31'0 0.0
2014-Aug-22 13:33N 30°03' W 090°31'0 0.0
2014-Aug-22 12:33N 30°03' W 090°31'0 0.0
2014-Aug-22 11:33N 30°03' W 090°31'0 0.0
2014-Aug-22 10:33N 30°03' W 090°31'0 0.0
2014-Aug-22 09:33N 30°03' W 090°31'0 0.0
2014-Aug-22 08:30N 30°03' W 090°31'0 0.0
2014-Aug-22 07:33N 30°03' W 090°31'0 0.0
2014-Aug-22 06:33N 30°03' W 090°31'0 0.0
2014-Aug-22 05:33N 30°03' W 090°31'1 1.0
2014-Aug-22 04:28N 30°03' W 090°32'0 0.0
2014-Aug-22 03:25N 30°03' W 090°32'0 0.0
2014-Aug-22 02:31N 30°03' W 090°32'0 0.0
2014-Aug-22 01:31N 30°03' W 090°32'2 2.3
2014-Aug-22 00:33N 30°03' W 090°35'7 6.5
2014-Aug-21 23:33N 30°02' W 090°42'  
Track history (hours):
 
Tides and Currents Weather Stations Pressure Air Temp Water Temp Dewpoint Dewpoint Depression Visibility Wind Speed Wind Dir Waves Ship Positions

Capt. John Reynolds

More information available from US FCC via Universal Licensing System and Coast Guard Vessel Documentation Center.

Last reported at 2014-Aug-31 11:04 UTC. Time now 2014-Sep-01 14:00 UTC.
Position N 29°60' W 090°50'.

Length 47 m; draft 3.3 m.

Type: Towing. MMSI: 367168950.

Date/timePositionNaut miles runAvg speedWind from/ knotsBaromVisibWave heightAir tempDewpointWater temp
2014-Aug-31 11:04N 29°60' W 090°50'0 0.0
2014-Aug-31 10:28N 29°60' W 090°50'0 0.0
2014-Aug-31 09:31N 29°60' W 090°50'0 0.4
2014-Aug-31 08:28N 29°59' W 090°49'0 0.0
2014-Aug-31 07:22N 29°59' W 090°49'0 0.0
2014-Aug-31 06:28N 29°59' W 090°49'0 0.0
2014-Aug-31 05:31N 29°59' W 090°49'3 0.3
2014-Aug-30 20:08N 30°01' W 090°47'3 4.9
2014-Aug-30 19:33N 30°01' W 090°44'5 4.8
2014-Aug-30 18:33N 30°03' W 090°39'4 4.4
2014-Aug-30 17:33N 30°03' W 090°34'4 4.0
2014-Aug-30 16:33N 30°03' W 090°29'0 0.1
2014-Aug-30 15:33N 30°03' W 090°29'0 0.0
2014-Aug-30 14:33N 30°03' W 090°29'0 0.0
2014-Aug-30 13:33N 30°03' W 090°29'0 0.0
2014-Aug-30 12:30N 30°03' W 090°29'0 0.0
2014-Aug-30 11:30N 30°03' W 090°29'0 0.0
2014-Aug-30 10:33N 30°03' W 090°29'0 0.0
2014-Aug-30 09:30N 30°03' W 090°29'0 0.0
2014-Aug-30 08:33N 30°03' W 090°29'0 0.0
2014-Aug-30 07:33N 30°03' W 090°29'0 0.0
2014-Aug-30 06:33N 30°03' W 090°29'0 0.0
2014-Aug-30 05:33N 30°03' W 090°29'1 1.3
2014-Aug-30 04:33N 30°02' W 090°28'5 4.8
2014-Aug-30 03:33N 29°59' W 090°24'3 2.4
2014-Aug-30 02:31N 29°57' W 090°23'3 0.9
2014-Aug-29 23:15N 29°56' W 090°19'0 0.0
2014-Aug-29 21:21N 29°56' W 090°19'0 0.0
2014-Aug-29 20:06N 29°56' W 090°19'13 0.3
2014-Aug-27 17:33N 30°03' W 090°32'2 1.6
2014-Aug-27 16:31N 30°03' W 090°34'0 0.0
2014-Aug-27 15:25N 30°03' W 090°34'0 0.0
2014-Aug-27 14:31N 30°03' W 090°34'0 0.1
2014-Aug-27 13:28N 30°03' W 090°34'4 4.3
2014-Aug-27 12:32N 30°03' W 090°38'7 7.0
2014-Aug-27 11:33N 30°01' W 090°46'2 1.3
2014-Aug-27 10:03N 30°00' W 090°48'0 0.0
2014-Aug-27 09:27N 30°00' W 090°48'0 0.0
2014-Aug-27 08:33N 30°00' W 090°48'0 0.0
2014-Aug-27 07:33N 30°00' W 090°48'0 0.0
2014-Aug-27 06:33N 30°00' W 090°48'0 0.0
2014-Aug-27 05:33N 30°00' W 090°48'0 0.0
2014-Aug-27 04:33N 30°00' W 090°48'0 0.0
2014-Aug-27 01:30N 29°60' W 090°48'2 2.0
2014-Aug-27 00:34N 30°01' W 090°50'10 0.7
2014-Aug-26 10:31N 30°02' W 090°38'4 4.5
2014-Aug-26 09:33N 30°03' W 090°33'1 0.8
2014-Aug-26 08:33N 30°03' W 090°32'0 0.0
2014-Aug-26 07:33N 30°03' W 090°32'0 0.1
2014-Aug-26 06:32N 30°03' W 090°32'0 0.0
2014-Aug-26 05:32N 30°03' W 090°32'0 0.0
2014-Aug-26 04:32N 30°03' W 090°32'0 0.0
2014-Aug-26 03:32N 30°03' W 090°32'0 0.3
2014-Aug-26 02:32N 30°03' W 090°32'0 0.3
2014-Aug-26 01:33N 30°03' W 090°32'0 0.3
2014-Aug-26 00:33N 30°03' W 090°32'5 4.5
2014-Aug-25 23:32N 30°02' W 090°38'11 1.0
2014-Aug-25 12:32N 29°60' W 090°50'0 0.0
2014-Aug-25 11:32N 29°60' W 090°50'0 0.0
2014-Aug-25 10:32N 29°60' W 090°50'0 0.0
2014-Aug-25 09:32N 29°60' W 090°50'1 1.3
2014-Aug-25 08:25N 30°01' W 090°50'0 0.1
2014-Aug-25 07:21N 30°01' W 090°50'3 3.2
2014-Aug-25 06:33N 30°00' W 090°47'6 6.1
2014-Aug-25 05:33N 30°03' W 090°40'6 5.6
2014-Aug-25 04:33N 30°03' W 090°34'1 0.5
2014-Aug-25 03:32N 30°03' W 090°33'7 3.7
2014-Aug-25 01:33N 29°60' W 090°26'5 4.0
2014-Aug-25 00:13N 29°56' W 090°21'24 0.5
2014-Aug-23 03:32N 30°00' W 090°48'1 0.3
2014-Aug-22 23:11N 30°01' W 090°46'8 4.4
2014-Aug-22 21:28N 30°02' W 090°38'4 4.3
2014-Aug-22 20:34N 30°03' W 090°33'2 2.0
2014-Aug-22 19:32N 30°03' W 090°31'0 0.2
2014-Aug-22 18:29N 30°03' W 090°31'0 0.0
2014-Aug-22 17:11N 30°03' W 090°31'0 0.0
2014-Aug-22 16:17N 30°03' W 090°31'0 0.2
2014-Aug-22 15:33N 30°03' W 090°31'0 0.0
2014-Aug-22 14:27N 30°03' W 090°31'0 0.0
2014-Aug-22 13:33N 30°03' W 090°31'0 0.0
2014-Aug-22 12:33N 30°03' W 090°31'0 0.0
2014-Aug-22 11:33N 30°03' W 090°31'0 0.0
2014-Aug-22 10:33N 30°03' W 090°31'0 0.0
2014-Aug-22 09:33N 30°03' W 090°31'0 0.0
2014-Aug-22 08:30N 30°03' W 090°31'0 0.0
2014-Aug-22 07:33N 30°03' W 090°31'0 0.0
2014-Aug-22 06:33N 30°03' W 090°31'0 0.0
2014-Aug-22 05:33N 30°03' W 090°31'1 1.0
2014-Aug-22 04:28N 30°03' W 090°32'0 0.0
2014-Aug-22 03:25N 30°03' W 090°32'0 0.0
2014-Aug-22 02:31N 30°03' W 090°32'0 0.0
2014-Aug-22 01:31N 30°03' W 090°32'2 2.3
2014-Aug-22 00:33N 30°03' W 090°35'7 6.5
2014-Aug-21 23:33N 30°02' W 090°42'  

Dump ship's entire track history